| time (UTC) | temp C | wind direction | speed KPH | gust KPH | rain 1hr cm | rain 24hr cm | rain mn cm | humidity % | barometer mb |
| 20260507000055 | 18 | 178 | 0.0 | 0.0 | 0.00 | 0.25 | 0.25 | 85 | 1007.3 |
| 20260506234615 | 19 | 209 | 0.0 | 6.4 | 0.00 | 0.25 | 0.25 | 85 | 1007.5 |
| 20260506233052 | 19 | 204 | 0.0 | 4.8 | 0.00 | 0.25 | 0.25 | 84 | 1007.5 |
| 20260506231554 | 19 | 192 | 0.0 | 9.7 | 0.00 | 0.25 | 0.25 | 84 | 1007.4 |
| 20260506230052 | 19 | 194 | 0.0 | 6.4 | 0.00 | 0.25 | 0.25 | 84 | 1007.3 |
| 20260506224552 | 20 | 204 | 0.0 | 14.5 | 0.00 | 0.25 | 0.25 | 82 | 1007.4 |
| 20260506223057 | 20 | 208 | 3.2 | 16.1 | 0.00 | 0.25 | 0.25 | 82 | 1007.2 |
| 20260506221554 | 20 | 202 | 0.0 | 16.1 | 0.00 | 0.25 | 0.25 | 82 | 1007.2 |
| 20260506220050 | 20 | 180 | 1.6 | 16.1 | 0.00 | 0.25 | 0.25 | 82 | 1007.1 |
| 20260506214550 | 20 | 213 | 0.0 | 9.7 | 0.00 | 0.25 | 0.25 | 82 | 1007.1 |
| 20260506213048 | 20 | 178 | 1.6 | 11.3 | 0.00 | 0.25 | 0.25 | 83 | 1006.7 |
| 20260506211549 | 20 | 186 | 1.6 | 14.5 | 0.00 | 0.25 | 0.25 | 83 | 1007.0 |
| 20260506210048 | 20 | 232 | 3.2 | 12.9 | 0.00 | 0.25 | 0.25 | 82 | 1006.8 |
| 20260506204555 | 20 | 213 | 1.6 | 16.1 | 0.00 | 0.25 | 0.25 | 81 | 1006.9 |
| 20260506203046 | 20 | 147 | 4.8 | 29.0 | 0.00 | 0.25 | 0.25 | 85 | 1006.8 |
| 20260506201545 | 20 | 186 | 4.8 | 20.9 | 0.00 | 0.25 | 0.25 | 84 | 1006.7 |
| 20260506200057 | 18 | 228 | 1.6 | 14.5 | 0.00 | 0.25 | 0.25 | 86 | 1006.8 |
| 20260506194548 | 18 | 232 | 0.0 | 14.5 | 0.00 | 0.25 | 0.25 | 87 | 1006.9 |
| 20260506193040 | 18 | 175 | 1.6 | 16.1 | 0.00 | 0.25 | 0.25 | 88 | 1007.1 |
| 20260506191539 | 17 | 192 | 6.4 | 19.3 | 0.00 | 0.25 | 0.25 | 88 | 1007.1 |
| 20260506190039 | 17 | 206 | 0.0 | 19.3 | 0.00 | 0.25 | 0.25 | 89 | 1007.4 |
| 20260506184539 | 17 | 193 | 3.2 | 16.1 | 0.00 | 0.25 | 0.25 | 89 | 1007.4 |
| 20260506183038 | 17 | 238 | 6.4 | 20.9 | 0.00 | 0.25 | 0.25 | 89 | 1007.5 |
| 20260506181536 | 17 | 262 | 0.0 | 20.9 | 0.00 | 0.25 | 0.25 | 90 | 1007.7 |
| 20260506180032 | 16 | 201 | 4.8 | 20.9 | 0.00 | 0.25 | 0.25 | 90 | 1007.6 |
| 20260506174630 | 16 | 210 | 1.6 | 19.3 | 0.00 | 0.25 | 0.25 | 91 | 1007.8 |
| 20260506173028 | 16 | 159 | 3.2 | 17.7 | 0.00 | 0.25 | 0.25 | 91 | 1007.8 |
| 20260506171537 | 16 | 257 | 0.0 | 11.3 | 0.00 | 0.25 | 0.25 | 91 | 1007.9 |
| 20260506170026 | 16 | 140 | 0.0 | 14.5 | 0.05 | 0.25 | 0.25 | 91 | 1008.1 |
| 20260506164525 | 16 | 150 | 0.0 | 22.5 | 0.10 | 0.25 | 0.25 | 91 | 1008.0 |
| 20260506163022 | 16 | 192 | 3.2 | 17.7 | 0.13 | 0.25 | 0.25 | 91 | 1008.2 |
| 20260506161523 | 16 | 165 | 1.6 | 14.5 | 0.15 | 0.25 | 0.25 | 91 | 1008.2 |
| 20260506160032 | 16 | 217 | 3.2 | 11.3 | 0.15 | 0.20 | 0.20 | 90 | 1008.6 |
| 20260506154519 | 16 | 165 | 3.2 | 14.5 | 0.13 | 0.15 | 0.15 | 90 | 1009.1 |
| 20260506153018 | 16 | 188 | 0.0 | 14.5 | 0.10 | 0.10 | 0.10 | 89 | 1009.1 |
| 20260506151529 | 16 | 197 | 1.6 | 16.1 | 0.10 | 0.10 | 0.10 | 89 | 1009.0 |
| 20260506150025 | 16 | 242 | 1.6 | 16.1 | 0.05 | 0.05 | 0.05 | 87 | 1009.0 |
| 20260506144512 | 17 | 194 | 4.8 | 20.9 | 0.03 | 0.03 | 0.03 | 85 | 1009.1 |
| 20260506143030 | 17 | 176 | 3.2 | 22.5 | 0.00 | 0.00 | 0.00 | 84 | 1009.0 |
| 20260506141509 | 18 | 165 | 3.2 | 22.5 | 0.00 | 0.00 | 0.00 | 80 | 1009.1 |
| 20260506140010 | 18 | 151 | 4.8 | 24.1 | 0.00 | 0.00 | 0.00 | 76 | 1009.0 |
| 20260506134506 | 19 | 220 | 0.0 | 27.4 | 0.00 | 0.00 | 0.00 | 77 | 1008.8 |
| 20260506133006 | 18 | 159 | 6.4 | 24.1 | 0.00 | 0.00 | 0.00 | 78 | 1008.7 |
| 20260506131511 | 18 | 142 | 6.4 | 17.7 | 0.00 | 0.00 | 0.00 | 78 | 1008.9 |
| 20260506130004 | 18 | 208 | 4.8 | 30.6 | 0.00 | 0.00 | 0.00 | 78 | 1008.9 |
| 20260506124502 | 18 | 178 | 4.8 | 16.1 | 0.00 | 0.00 | 0.00 | 77 | 1009.0 |
| 20260506123003 | 19 | 311 | 4.8 | 17.7 | 0.00 | 0.00 | 0.00 | 77 | 1009.1 |
| 20260506121604 | 18 | 207 | 4.8 | 29.0 | 0.00 | 0.00 | 0.00 | 78 | 1009.0 |
| 20260506114601 | 18 | 101 | 4.8 | 27.4 | 0.00 | 0.00 | 0.00 | 78 | 1008.9 |
| 20260506113107 | 18 | 103 | 3.2 | 22.5 | 0.00 | 0.00 | 0.00 | 79 | 1008.7 |
| 20260506111558 | 18 | 209 | 1.6 | 17.7 | 0.00 | 0.00 | 0.00 | 80 | 1008.8 |
| 20260506104615 | 17 | 167 | 4.8 | 17.7 | 0.00 | 0.00 | 0.00 | 81 | 1008.7 |
| 20260506103054 | 17 | 127 | 4.8 | 20.9 | 0.00 | 0.00 | 0.00 | 81 | 1008.5 |
| 20260506101559 | 17 | 150 | 8.0 | 24.1 | 0.00 | 0.00 | 0.00 | 81 | 1008.6 |
| 20260506100052 | 17 | 192 | 0.0 | 24.1 | 0.00 | 0.00 | 0.00 | 81 | 1008.4 |
| 20260506094556 | 17 | 144 | 0.0 | 17.7 | 0.00 | 0.00 | 0.00 | 81 | 1008.5 |
| 20260506093053 | 17 | 150 | 3.2 | 19.3 | 0.00 | 0.00 | 0.00 | 80 | 1008.7 |
| 20260506091546 | 17 | 163 | 1.6 | 19.3 | 0.00 | 0.00 | 0.00 | 80 | 1008.5 |
| 20260506090045 | 18 | 213 | 1.6 | 16.1 | 0.00 | 0.00 | 0.00 | 79 | 1008.6 |
| 20260506084547 | 18 | 163 | 1.6 | 16.1 | 0.00 | 0.00 | 0.00 | 79 | 1008.8 |
| 20260506083041 | 18 | 202 | 0.0 | 16.1 | 0.00 | 0.00 | 0.00 | 78 | 1008.8 |
| 20260506081540 | 18 | 171 | 3.2 | 17.7 | 0.00 | 0.00 | 0.00 | 78 | 1008.8 |
| 20260506073043 | 18 | 202 | 0.0 | 11.3 | 0.00 | 0.00 | 0.00 | 78 | 1008.9 |
| 20260506071538 | 18 | 169 | 3.2 | 17.7 | 0.00 | 0.00 | 0.00 | 77 | 1008.9 |
| 20260506061531 | 19 | 171 | 3.2 | 20.9 | 0.00 | 0.00 | 0.00 | 75 | 1009.4 |
| 20260506044524 | 18 | 169 | 0.0 | 11.3 | 0.00 | 0.00 | 0.00 | 74 | 1009.9 |
| 20260506043021 | 18 | 156 | 1.6 | 17.7 | 0.00 | 0.00 | 0.00 | 73 | 1009.9 |
| 20260506041527 | 18 | 188 | 0.0 | 12.9 | 0.00 | 0.00 | 0.00 | 72 | 1010.0 |
| 20260506040015 | 18 | 133 | 0.0 | 9.7 | 0.00 | 0.00 | 0.00 | 72 | 1010.0 |
| 20260506034515 | 18 | 138 | 0.0 | 20.9 | 0.00 | 0.00 | 0.00 | 72 | 1009.9 |
| 20260506033014 | 19 | 146 | 1.6 | 16.1 | 0.00 | 0.00 | 0.00 | 70 | 1009.8 |
| 20260506031522 | 19 | 169 | 0.0 | 14.5 | 0.00 | 0.00 | 0.00 | 69 | 1009.7 |
| 20260506030018 | 20 | 142 | 0.0 | 19.3 | 0.00 | 0.00 | 0.00 | 66 | 1009.9 |
| 20260506024512 | 20 | 142 | 4.8 | 17.7 | 0.00 | 0.00 | 0.00 | 64 | 1009.9 |
| 20260506023011 | 21 | 174 | 1.6 | 17.7 | 0.00 | 0.00 | 0.00 | 62 | 1010.0 |
| 20260506021511 | 21 | 195 | 1.6 | 14.5 | 0.00 | 0.00 | 0.00 | 60 | 1009.9 |
| 20260506020014 | 21 | 165 | 0.0 | 16.1 | 0.00 | 0.00 | 0.00 | 59 | 1009.8 |
| 20260506014517 | 22 | 206 | 0.0 | 11.3 | 0.00 | 0.00 | 0.00 | 57 | 1009.7 |
| 20260506013022 | 22 | 133 | 3.2 | 22.5 | 0.00 | 0.00 | 0.00 | 56 | 1009.7 |
| 20260506011509 | 22 | 166 | 0.0 | 16.1 | 0.00 | 0.00 | 0.00 | 54 | 1009.4 |
| 20260506010008 | 22 | 180 | 1.6 | 16.1 | 0.00 | 0.00 | 0.00 | 53 | 1009.2 |
| 20260506004517 | 23 | 178 | 0.0 | 17.7 | 0.00 | 0.00 | 0.00 | 52 | 1009.2 |
| 20260506003006 | 23 | 210 | 1.6 | 24.1 | 0.00 | 0.00 | 0.00 | 51 | 1009.1 |
| 20260506001506 | 23 | 144 | 1.6 | 20.9 | 0.00 | 0.00 | 0.00 | 50 | 1008.9 |